Time,TemperatureF,DewpointF,PressureIn,WindDirection,WindDirectionDegrees,WindSpeedMPH,WindSpeedGustMPH,Humidity,HourlyPrecipIn,Conditions,Clouds,dailyrainin,SoftwareType,DateUTC
2013-11-07 00:05:00,58.4,48.7,29.94,WSW,241,1.0,2.0,70,0.00,,,0.00,Wunderground v.1.15,2013-11-07 05:05:00,
2013-11-07 00:10:00,58.4,48.7,29.94,WSW,241,1.0,1.0,70,0.00,,,0.00,Wunderground v.1.15,2013-11-07 05:10:00,
2013-11-07 00:20:00,58.2,48.8,29.94,West,263,1.0,1.0,71,0.00,,,0.00,Wunderground v.1.15,2013-11-07 05:20:00,
2013-11-07 00:25:00,58.1,48.7,29.94,West,276,2.0,3.0,71,0.00,,,0.00,Wunderground v.1.15,2013-11-07 05:25:00,
2013-11-07 00:35:00,58.0,48.6,29.93,WNW,295,1.0,1.0,71,0.00,,,0.00,Wunderground v.1.15,2013-11-07 05:35:00,
2013-11-07 00:45:00,57.8,48.5,29.92,WNW,295,0.0,1.0,71,0.00,,,0.00,Wunderground v.1.15,2013-11-07 05:45:00,
2013-11-07 00:50:00,57.6,48.6,29.92,WNW,295,0.0,0.0,72,0.00,,,0.00,Wunderground v.1.15,2013-11-07 05:50:00,
2013-11-07 01:00:00,57.4,48.4,29.92,WNW,295,0.0,0.0,72,0.00,,,0.00,Wunderground v.1.15,2013-11-07 06:00:00,
2013-11-07 01:05:00,57.3,48.3,29.92,WNW,295,0.0,0.0,72,0.00,,,0.00,Wunderground v.1.15,2013-11-07 06:05:00,
2013-11-07 01:15:00,57.3,48.7,29.91,WNW,295,0.0,1.0,73,0.00,,,0.00,Wunderground v.1.15,2013-11-07 06:15:00,
2013-11-07 01:25:00,57.4,48.4,29.91,West,269,0.0,0.0,72,0.00,,,0.00,Wunderground v.1.15,2013-11-07 06:25:00,
2013-11-07 01:30:00,57.5,48.5,29.91,West,276,0.0,0.0,72,0.00,,,0.00,Wunderground v.1.15,2013-11-07 06:30:00,
2013-11-07 01:40:00,57.6,48.6,29.90,West,276,0.0,0.0,72,0.00,,,0.00,Wunderground v.1.15,2013-11-07 06:40:00,
2013-11-07 01:50:00,57.7,48.7,29.90,WSW,248,0.0,3.0,72,0.00,,,0.00,Wunderground v.1.15,2013-11-07 06:50:00,
2013-11-07 02:00:00,57.8,48.8,29.89,WNW,289,1.0,1.0,72,0.00,,,0.00,Wunderground v.1.15,2013-11-07 07:00:00,
2013-11-07 02:05:00,57.8,48.8,29.89,West,274,0.0,1.0,72,0.00,,,0.00,Wunderground v.1.15,2013-11-07 07:05:00,
2013-11-07 02:15:00,57.8,48.8,29.89,West,276,1.0,1.0,72,0.00,,,0.00,Wunderground v.1.15,2013-11-07 07:15:00,
2013-11-07 02:25:00,57.7,49.1,29.88,WNW,289,0.0,1.0,73,0.00,,,0.00,Wunderground v.1.15,2013-11-07 07:25:00,
2013-11-07 02:35:00,57.5,48.5,29.87,West,274,0.0,2.0,72,0.00,,,0.00,Wunderground v.1.15,2013-11-07 07:35:00,
2013-11-07 02:45:00,57.8,48.8,29.87,SW,232,1.0,1.0,72,0.00,,,0.00,Wunderground v.1.15,2013-11-07 07:45:00,
2013-11-07 02:55:00,58.1,49.1,29.86,WSW,247,1.0,3.0,72,0.00,,,0.00,Wunderground v.1.15,2013-11-07 07:55:00,
2013-11-07 03:00:00,58.3,49.3,29.86,West,267,2.0,2.0,72,0.00,,,0.00,Wunderground v.1.15,2013-11-07 08:00:00,
2013-11-07 03:05:00,58.5,49.5,29.86,WSW,242,2.0,3.0,72,0.00,,,0.00,Wunderground v.1.15,2013-11-07 08:05:00,
2013-11-07 03:15:00,58.8,49.4,29.85,WSW,238,2.0,3.0,71,0.00,,,0.00,Wunderground v.1.15,2013-11-07 08:15:00,
2013-11-07 03:20:00,58.8,49.0,29.85,WSW,243,2.0,3.0,70,0.00,,,0.00,Wunderground v.1.15,2013-11-07 08:20:00,
2013-11-07 03:30:00,59.0,49.2,29.85,WSW,237,2.0,2.0,70,0.00,,,0.00,Wunderground v.1.15,2013-11-07 08:30:00,
2013-11-07 03:35:00,58.9,49.5,29.85,WSW,237,2.0,4.0,71,0.00,,,0.00,Wunderground v.1.15,2013-11-07 08:35:00,
2013-11-07 03:45:00,59.1,49.3,29.85,West,276,2.0,4.0,70,0.00,,,0.00,Wunderground v.1.15,2013-11-07 08:45:00,
2013-11-07 03:55:00,59.2,49.4,29.84,SW,227,2.0,3.0,70,0.00,,,0.00,Wunderground v.1.15,2013-11-07 08:55:00,
2013-11-07 04:00:00,59.2,49.4,29.85,WSW,237,2.0,3.0,70,0.00,,,0.00,Wunderground v.1.15,2013-11-07 09:00:00,
2013-11-07 04:05:00,59.3,49.9,29.85,SW,216,2.0,3.0,71,0.00,,,0.00,Wunderground v.1.15,2013-11-07 09:05:00,
2013-11-07 04:15:00,59.1,49.7,29.85,SW,234,1.0,2.0,71,0.00,,,0.00,Wunderground v.1.15,2013-11-07 09:15:00,
2013-11-07 04:25:00,59.1,49.7,29.85,SSW,212,1.0,1.0,71,0.00,,,0.00,Wunderground v.1.15,2013-11-07 09:25:00,
2013-11-07 04:30:00,58.9,49.5,29.84,NW,310,0.0,0.0,71,0.00,,,0.00,Wunderground v.1.15,2013-11-07 09:30:00,
2013-11-07 04:40:00,58.7,50.4,29.84,WNW,300,3.0,4.0,74,0.00,,,0.00,Wunderground v.1.15,2013-11-07 09:40:00,
2013-11-07 04:50:00,59.0,51.8,29.84,SW,236,5.0,5.0,77,0.00,,,0.00,Wunderground v.1.15,2013-11-07 09:50:00,
2013-11-07 04:55:00,59.1,51.5,29.84,West,261,3.0,5.0,76,0.00,,,0.00,Wunderground v.1.15,2013-11-07 09:55:00,
2013-11-07 05:05:00,59.0,52.5,29.84,WSW,245,1.0,4.0,79,0.00,,,0.00,Wunderground v.1.15,2013-11-07 10:05:00,
2013-11-07 05:15:00,59.3,52.8,29.84,South,177,3.0,3.0,79,0.00,,,0.00,Wunderground v.1.15,2013-11-07 10:15:00,
2013-11-07 05:25:00,59.3,53.1,29.83,WSW,258,1.0,1.0,80,0.00,,,0.00,Wunderground v.1.15,2013-11-07 10:25:00,
2013-11-07 05:35:00,59.0,52.8,29.83,NNE,29,1.0,3.0,80,0.00,,,0.00,Wunderground v.1.15,2013-11-07 10:35:00,
2013-11-07 05:45:00,58.6,53.1,29.83,West,270,1.0,1.0,82,0.00,,,0.00,Wunderground v.1.15,2013-11-07 10:45:00,
2013-11-07 05:55:00,58.5,53.4,29.83,WSW,249,1.0,1.0,83,0.00,,,0.00,Wunderground v.1.15,2013-11-07 10:55:00,
2013-11-07 06:05:00,58.6,53.5,29.83,South,187,2.0,3.0,83,0.00,,,0.00,Wunderground v.1.15,2013-11-07 11:05:00,
2013-11-07 06:15:00,58.9,53.4,29.83,West,271,1.0,2.0,82,0.00,,,0.00,Wunderground v.1.15,2013-11-07 11:15:00,
2013-11-07 06:25:00,58.6,53.8,29.84,SW,225,2.0,3.0,84,0.00,,,0.00,Wunderground v.1.15,2013-11-07 11:25:00,
2013-11-07 06:35:00,58.4,53.6,29.83,SSW,210,4.0,5.0,84,0.00,,,0.00,Wunderground v.1.15,2013-11-07 11:35:00,
2013-11-07 06:45:00,58.4,53.9,29.83,West,260,3.0,5.0,85,0.00,,,0.00,Wunderground v.1.15,2013-11-07 11:45:00,
2013-11-07 06:55:00,58.1,53.9,29.82,West,260,0.0,1.0,86,0.00,,,0.00,Wunderground v.1.15,2013-11-07 11:55:00,
2013-11-07 07:05:00,57.7,53.9,29.82,NNW,347,0.0,1.0,87,0.00,,,0.00,Wunderground v.1.15,2013-11-07 12:05:00,
2013-11-07 07:15:00,57.5,54.0,29.83,NNW,347,0.0,0.0,88,0.00,,,0.00,Wunderground v.1.15,2013-11-07 12:15:00,
2013-11-07 07:25:00,57.5,54.0,29.84,NNW,330,1.0,1.0,88,0.00,,,0.01,Wunderground v.1.15,2013-11-07 12:25:00,
2013-11-07 07:30:00,57.3,53.1,29.85,WNW,291,3.0,3.0,86,0.13,,,0.02,Wunderground v.1.15,2013-11-07 12:30:00,
2013-11-07 07:35:00,56.4,51.6,29.86,SW,233,5.0,6.0,84,0.10,,,0.02,Wunderground v.1.15,2013-11-07 12:35:00,
2013-11-07 07:45:00,54.7,49.3,29.85,NW,308,7.0,7.0,82,0.04,,,0.02,Wunderground v.1.15,2013-11-07 12:45:00,
2013-11-07 07:55:00,54.1,49.1,29.86,WNW,288,5.0,10.0,83,0.00,,,0.02,Wunderground v.1.15,2013-11-07 12:55:00,
2013-11-07 08:05:00,53.7,48.3,29.86,NNW,347,5.0,5.0,82,0.00,,,0.02,Wunderground v.1.15,2013-11-07 13:05:00,
2013-11-07 08:15:00,53.5,48.1,29.85,WNW,302,5.0,10.0,82,0.00,,,0.02,Wunderground v.1.15,2013-11-07 13:15:00,
2013-11-07 08:25:00,53.5,47.8,29.86,West,266,6.0,11.0,81,0.00,,,0.02,Wunderground v.1.15,2013-11-07 13:25:00,
2013-11-07 08:30:00,53.5,48.1,29.86,SSW,203,6.0,6.0,82,0.00,,,0.02,Wunderground v.1.15,2013-11-07 13:30:00,
2013-11-07 08:35:00,53.4,48.0,29.87,SW,228,7.0,7.0,82,0.00,,,0.02,Wunderground v.1.15,2013-11-07 13:35:00,
2013-11-07 08:45:00,53.2,47.8,29.88,SW,228,7.0,7.0,82,0.00,,,0.02,Wunderground v.1.15,2013-11-07 13:45:00,
2013-11-07 08:55:00,53.1,48.1,29.88,WNW,287,4.0,10.0,83,0.00,,,0.02,Wunderground v.1.15,2013-11-07 13:55:00,
2013-11-07 09:05:00,52.8,47.8,29.88,SW,222,6.0,6.0,83,0.00,,,0.03,Wunderground v.1.15,2013-11-07 14:05:00,
2013-11-07 09:15:00,52.7,47.7,29.89,NW,306,4.0,5.0,83,0.00,,,0.03,Wunderground v.1.15,2013-11-07 14:15:00,
2013-11-07 09:25:00,52.4,47.7,29.89,WNW,303,2.0,4.0,84,0.00,,,0.03,Wunderground v.1.15,2013-11-07 14:25:00,
2013-11-07 09:35:00,52.1,47.4,29.89,WNW,286,4.0,6.0,84,0.00,,,0.03,Wunderground v.1.15,2013-11-07 14:35:00,
2013-11-07 09:45:00,51.6,46.6,29.89,WNW,292,3.0,6.0,83,0.00,,,0.03,Wunderground v.1.15,2013-11-07 14:45:00,
2013-11-07 09:55:00,51.1,45.8,29.90,North,354,4.0,4.0,82,0.00,,,0.03,Wunderground v.1.15,2013-11-07 14:55:00,
2013-11-07 10:05:00,50.7,45.4,29.91,NNW,331,3.0,3.0,82,0.00,,,0.03,Wunderground v.1.15,2013-11-07 15:05:00,
2013-11-07 10:15:00,50.5,45.8,29.91,WSW,237,5.0,13.0,84,0.00,,,0.03,Wunderground v.1.15,2013-11-07 15:15:00,
2013-11-07 10:25:00,50.4,45.1,29.91,WSW,239,4.0,9.0,82,0.00,,,0.03,Wunderground v.1.15,2013-11-07 15:25:00,
2013-11-07 10:35:00,50.2,44.3,29.91,SSW,213,6.0,9.0,80,0.00,,,0.03,Wunderground v.1.15,2013-11-07 15:35:00,
2013-11-07 10:45:00,49.9,44.3,29.92,West,263,4.0,12.0,81,0.00,,,0.03,Wunderground v.1.15,2013-11-07 15:45:00,
2013-11-07 10:50:00,49.6,43.7,29.93,South,185,4.0,5.0,80,0.00,,,0.03,Wunderground v.1.15,2013-11-07 15:50:00,
2013-11-07 11:00:00,49.2,43.9,29.92,SW,228,4.0,6.0,82,0.00,,,0.03,Wunderground v.1.15,2013-11-07 16:00:00,
2013-11-07 11:05:00,49.2,43.9,29.92,SSW,212,4.0,6.0,82,0.00,,,0.03,Wunderground v.1.15,2013-11-07 16:05:00,
2013-11-07 11:15:00,49.4,43.8,29.93,NNW,328,3.0,6.0,81,0.00,,,0.03,Wunderground v.1.15,2013-11-07 16:15:00,
2013-11-07 11:20:00,49.1,43.2,29.93,West,264,5.0,15.0,80,0.00,,,0.03,Wunderground v.1.15,2013-11-07 16:20:00,
2013-11-07 11:30:00,48.6,42.7,29.93,NE,35,5.0,5.0,80,0.00,,,0.03,Wunderground v.1.15,2013-11-07 16:30:00,
2013-11-07 11:40:00,49.6,43.7,29.92,SW,228,3.0,8.0,80,0.00,,,0.03,Wunderground v.1.15,2013-11-07 16:40:00,
2013-11-07 11:50:00,49.6,43.0,29.93,SW,233,4.0,4.0,78,0.00,,,0.03,Wunderground v.1.15,2013-11-07 16:50:00,
2013-11-07 12:00:00,50.9,42.9,29.93,SW,220,6.0,6.0,74,0.00,,,0.03,Wunderground v.1.15,2013-11-07 17:00:00,
2013-11-07 12:05:00,51.3,42.6,29.93,SSW,203,7.0,7.0,72,0.00,,,0.03,Wunderground v.1.15,2013-11-07 17:05:00,
2013-11-07 12:15:00,51.5,42.0,29.93,North,4,7.0,10.0,70,0.00,,,0.04,Wunderground v.1.15,2013-11-07 17:15:00,
2013-11-07 12:25:00,51.6,41.8,29.93,South,178,7.0,10.0,69,0.00,,,0.04,Wunderground v.1.15,2013-11-07 17:25:00,
2013-11-07 12:35:00,51.7,41.9,29.93,WNW,289,6.0,7.0,69,0.00,,,0.04,Wunderground v.1.15,2013-11-07 17:35:00,
2013-11-07 12:45:00,51.6,41.4,29.92,WSW,239,5.0,15.0,68,0.00,,,0.04,Wunderground v.1.15,2013-11-07 17:45:00,
2013-11-07 12:55:00,51.2,41.4,29.93,West,263,10.0,21.0,69,0.00,,,0.04,Wunderground v.1.15,2013-11-07 17:55:00,
2013-11-07 13:00:00,50.9,41.5,29.92,WNW,299,10.0,10.0,70,0.00,,,0.04,Wunderground v.1.15,2013-11-07 18:00:00,
2013-11-07 13:05:00,51.2,41.4,29.93,NW,324,8.0,10.0,69,0.00,,,0.04,Wunderground v.1.15,2013-11-07 18:05:00,
2013-11-07 13:10:00,51.7,42.2,29.93,South,187,5.0,5.0,70,0.00,,,0.04,Wunderground v.1.15,2013-11-07 18:10:00,
2013-11-07 13:20:00,51.9,41.7,29.92,WNW,303,6.0,6.0,68,0.00,,,0.04,Wunderground v.1.15,2013-11-07 18:20:00,
2013-11-07 13:30:00,51.8,40.4,29.92,SW,218,7.0,7.0,65,0.00,,,0.04,Wunderground v.1.15,2013-11-07 18:30:00,
2013-11-07 13:40:00,51.7,39.5,29.91,SSW,211,7.0,7.0,63,0.00,,,0.04,Wunderground v.1.15,2013-11-07 18:40:00,
2013-11-07 13:50:00,51.5,38.5,29.91,West,265,10.0,13.0,61,0.00,,,0.04,Wunderground v.1.15,2013-11-07 18:50:00,
2013-11-07 13:55:00,50.9,38.3,29.91,SE,135,11.0,13.0,62,0.00,,,0.04,Wunderground v.1.15,2013-11-07 18:55:00,
2013-11-07 14:05:00,51.5,38.5,29.91,WNW,289,10.0,16.0,61,0.00,,,0.04,Wunderground v.1.15,2013-11-07 19:05:00,
2013-11-07 14:15:00,51.4,38.4,29.91,WSW,242,10.0,16.0,61,0.00,,,0.04,Wunderground v.1.15,2013-11-07 19:15:00,
2013-11-07 14:25:00,51.9,38.0,29.92,SW,234,9.0,13.0,59,0.00,,,0.04,Wunderground v.1.15,2013-11-07 19:25:00,
2013-11-07 14:35:00,51.7,38.3,29.92,West,260,11.0,11.0,60,0.00,,,0.04,Wunderground v.1.15,2013-11-07 19:35:00,
2013-11-07 14:45:00,51.7,38.7,29.92,NW,320,8.0,12.0,61,0.00,,,0.04,Wunderground v.1.15,2013-11-07 19:45:00,
2013-11-07 14:55:00,50.6,38.9,29.93,SW,216,6.0,6.0,64,0.00,,,0.04,Wunderground v.1.15,2013-11-07 19:55:00,
2013-11-07 15:05:00,48.5,38.4,29.94,West,262,8.0,10.0,68,0.00,,,0.04,Wunderground v.1.15,2013-11-07 20:05:00,
2013-11-07 15:15:00,47.8,37.7,29.95,WSW,246,9.0,9.0,68,0.00,,,0.04,Wunderground v.1.15,2013-11-07 20:15:00,
2013-11-07 15:25:00,47.2,36.8,29.94,SW,235,8.0,13.0,67,0.00,,,0.04,Wunderground v.1.15,2013-11-07 20:25:00,
2013-11-07 15:35:00,47.0,35.8,29.96,WNW,285,7.0,11.0,65,0.00,,,0.04,Wunderground v.1.15,2013-11-07 20:35:00,
2013-11-07 15:40:00,46.9,35.4,29.95,WSW,245,7.0,8.0,64,0.00,,,0.04,Wunderground v.1.15,2013-11-07 20:40:00,
2013-11-07 15:50:00,46.5,33.4,29.95,West,274,8.0,10.0,60,0.00,,,0.04,Wunderground v.1.15,2013-11-07 20:50:00,
2013-11-07 16:00:00,46.4,32.0,29.96,NNW,334,10.0,13.0,57,0.00,,,0.04,Wunderground v.1.15,2013-11-07 21:00:00,
2013-11-07 16:05:00,46.5,31.6,29.95,SW,218,9.0,13.0,56,0.00,,,0.04,Wunderground v.1.15,2013-11-07 21:05:00,
2013-11-07 16:15:00,46.3,32.3,29.96,West,268,5.0,10.0,58,0.00,,,0.04,Wunderground v.1.15,2013-11-07 21:15:00,
2013-11-07 16:25:00,46.0,32.5,29.96,SW,235,6.0,7.0,59,0.00,,,0.04,Wunderground v.1.15,2013-11-07 21:25:00,
2013-11-07 16:35:00,45.7,33.0,29.96,WSW,258,5.0,9.0,61,0.00,,,0.04,Wunderground v.1.15,2013-11-07 21:35:00,
2013-11-07 16:45:00,45.5,33.6,29.96,West,268,8.0,8.0,63,0.00,,,0.04,Wunderground v.1.15,2013-11-07 21:45:00,
2013-11-07 16:55:00,45.1,34.0,29.97,West,270,5.0,9.0,65,0.00,,,0.04,Wunderground v.1.15,2013-11-07 21:55:00,
2013-11-07 17:00:00,44.7,35.5,29.97,SW,221,7.0,16.0,70,0.00,,,0.04,Wunderground v.1.15,2013-11-07 22:00:00,
2013-11-07 17:05:00,43.9,35.5,29.98,South,189,7.0,16.0,72,0.00,,,0.04,Wunderground v.1.15,2013-11-07 22:05:00,
2013-11-07 17:15:00,43.1,34.7,29.98,WSW,256,6.0,7.0,72,0.00,,,0.04,Wunderground v.1.15,2013-11-07 22:15:00,
2013-11-07 17:25:00,43.3,34.2,29.98,West,272,11.0,11.0,70,0.00,,,0.04,Wunderground v.1.15,2013-11-07 22:25:00,
2013-11-07 17:35:00,43.3,33.4,29.99,WSW,249,10.0,18.0,68,0.00,,,0.04,Wunderground v.1.15,2013-11-07 22:35:00,
2013-11-07 17:45:00,43.4,33.2,29.99,SW,217,9.0,14.0,67,0.00,,,0.04,Wunderground v.1.15,2013-11-07 22:45:00,
2013-11-07 17:55:00,43.4,32.8,30.00,West,269,8.0,9.0,66,0.00,,,0.04,Wunderground v.1.15,2013-11-07 22:55:00,
2013-11-07 18:00:00,43.4,32.8,30.00,SSW,212,7.0,7.0,66,0.00,,,0.04,Wunderground v.1.15,2013-11-07 23:00:00,
2013-11-07 18:05:00,43.4,33.2,30.00,West,269,6.0,10.0,67,0.00,,,0.04,Wunderground v.1.15,2013-11-07 23:05:00,
2013-11-07 18:15:00,43.6,33.0,30.00,SSW,212,6.0,7.0,66,0.00,,,0.04,Wunderground v.1.15,2013-11-07 23:15:00,
2013-11-07 18:25:00,43.8,32.4,30.01,SW,233,7.0,9.0,64,0.00,,,0.04,Wunderground v.1.15,2013-11-07 23:25:00,
2013-11-07 18:30:00,43.8,32.8,30.01,SW,225,6.0,6.0,65,0.00,,,0.04,Wunderground v.1.15,2013-11-07 23:30:00,
2013-11-07 18:40:00,43.9,32.5,30.02,WNW,283,6.0,13.0,64,0.00,,,0.04,Wunderground v.1.15,2013-11-07 23:40:00,
2013-11-07 18:50:00,43.7,31.5,30.02,West,266,5.0,5.0,62,0.00,,,0.04,Wunderground v.1.15,2013-11-07 23:50:00,
2013-11-07 19:00:00,43.4,30.0,30.02,South,174,8.0,17.0,59,0.00,,,0.04,Wunderground v.1.15,2013-11-08 00:00:00,
2013-11-07 19:05:00,43.3,29.9,30.02,WNW,291,8.0,17.0,59,0.00,,,0.04,Wunderground v.1.15,2013-11-08 00:05:00,
2013-11-07 19:15:00,43.1,29.7,30.03,WSW,237,6.0,8.0,59,0.00,,,0.04,Wunderground v.1.15,2013-11-08 00:15:00,
2013-11-07 19:20:00,42.9,29.1,30.03,SW,233,6.0,6.0,58,0.00,,,0.04,Wunderground v.1.15,2013-11-08 00:20:00,
2013-11-07 19:30:00,42.7,28.9,30.04,SSW,207,6.0,6.0,58,0.00,,,0.04,Wunderground v.1.15,2013-11-08 00:30:00,
2013-11-07 19:40:00,42.4,29.1,30.04,West,275,6.0,12.0,59,0.00,,,0.04,Wunderground v.1.15,2013-11-08 00:40:00,
2013-11-07 19:45:00,42.3,29.0,30.04,North,4,5.0,12.0,59,0.00,,,0.04,Wunderground v.1.15,2013-11-08 00:45:00,
2013-11-07 19:55:00,41.7,27.6,30.04,WSW,247,6.0,11.0,57,0.00,,,0.04,Wunderground v.1.15,2013-11-08 00:55:00,
2013-11-07 20:05:00,41.4,27.3,30.05,WSW,242,9.0,9.0,57,0.00,,,0.04,Wunderground v.1.15,2013-11-08 01:05:00,
2013-11-07 20:15:00,41.1,26.1,30.04,WSW,247,7.0,7.0,55,0.00,,,0.04,Wunderground v.1.15,2013-11-08 01:15:00,
2013-11-07 20:20:00,41.0,25.6,30.05,NW,320,7.0,7.0,54,0.00,,,0.04,Wunderground v.1.15,2013-11-08 01:20:00,
2013-11-07 20:30:00,40.8,25.9,30.05,WSW,245,7.0,15.0,55,0.00,,,0.04,Wunderground v.1.15,2013-11-08 01:30:00,
2013-11-07 20:40:00,40.7,25.8,30.04,WSW,243,8.0,8.0,55,0.00,,,0.04,Wunderground v.1.15,2013-11-08 01:40:00,
2013-11-07 20:45:00,40.7,25.8,30.04,North,350,9.0,13.0,55,0.00,,,0.04,Wunderground v.1.15,2013-11-08 01:45:00,
2013-11-07 20:55:00,40.6,25.7,30.04,WSW,255,7.0,8.0,55,0.00,,,0.04,Wunderground v.1.15,2013-11-08 01:55:00,
2013-11-07 21:05:00,40.6,24.8,30.05,West,260,7.0,8.0,53,0.00,,,0.04,Wunderground v.1.15,2013-11-08 02:05:00,
2013-11-07 21:15:00,40.5,24.7,30.05,SW,215,7.0,12.0,53,0.00,,,0.04,Wunderground v.1.15,2013-11-08 02:15:00,
2013-11-07 21:25:00,40.6,24.3,30.04,WSW,258,8.0,17.0,52,0.00,,,0.04,Wunderground v.1.15,2013-11-08 02:25:00,
2013-11-07 21:30:00,40.6,24.3,30.04,NNW,345,7.0,7.0,52,0.00,,,0.04,Wunderground v.1.15,2013-11-08 02:30:00,
2013-11-07 21:40:00,40.5,24.2,30.04,West,269,5.0,5.0,52,0.00,,,0.04,Wunderground v.1.15,2013-11-08 02:40:00,
2013-11-07 21:50:00,40.5,24.7,30.05,SSW,212,5.0,5.0,53,0.00,,,0.04,Wunderground v.1.15,2013-11-08 02:50:00,
2013-11-07 21:55:00,40.4,25.1,30.05,North,4,3.0,5.0,54,0.00,,,0.04,Wunderground v.1.15,2013-11-08 02:55:00,
2013-11-07 22:05:00,40.2,24.9,30.05,SSW,212,3.0,6.0,54,0.00,,,0.04,Wunderground v.1.15,2013-11-08 03:05:00,
2013-11-07 22:15:00,40.2,24.9,30.05,South,183,4.0,4.0,54,0.00,,,0.04,Wunderground v.1.15,2013-11-08 03:15:00,
2013-11-07 22:25:00,39.5,25.1,30.05,NE,42,2.0,2.0,56,0.00,,,0.04,Wunderground v.1.15,2013-11-08 03:25:00,
2013-11-07 22:30:00,39.4,25.0,30.05,WNW,295,2.0,8.0,56,0.00,,,0.04,Wunderground v.1.15,2013-11-08 03:30:00,
2013-11-07 22:40:00,39.7,24.8,30.04,SW,225,4.0,7.0,55,0.00,,,0.04,Wunderground v.1.15,2013-11-08 03:40:00,
2013-11-07 22:50:00,39.9,24.6,30.04,WSW,252,5.0,7.0,54,0.00,,,0.04,Wunderground v.1.15,2013-11-08 03:50:00,
2013-11-07 22:55:00,39.8,24.9,30.04,SW,232,5.0,7.0,55,0.00,,,0.04,Wunderground v.1.15,2013-11-08 03:55:00,
2013-11-07 23:00:00,39.8,24.9,30.04,SW,233,4.0,6.0,55,0.00,,,0.04,Wunderground v.1.15,2013-11-08 04:00:00,
2013-11-07 23:05:00,39.8,25.4,30.04,WSW,257,5.0,9.0,56,0.00,,,0.04,Wunderground v.1.15,2013-11-08 04:05:00,
2013-11-07 23:15:00,39.7,25.3,30.04,SW,218,6.0,7.0,56,0.00,,,0.04,Wunderground v.1.15,2013-11-08 04:15:00,
2013-11-07 23:25:00,39.8,25.4,30.04,SSW,199,9.0,9.0,56,0.00,,,0.04,Wunderground v.1.15,2013-11-08 04:25:00,
2013-11-07 23:35:00,39.7,26.1,30.04,SSW,197,6.0,12.0,58,0.00,,,0.04,Wunderground v.1.15,2013-11-08 04:35:00,
2013-11-07 23:45:00,39.7,26.5,30.04,SW,218,6.0,13.0,59,0.00,,,0.04,Wunderground v.1.15,2013-11-08 04:45:00,
2013-11-07 23:55:00,40.0,26.8,30.05,SSW,196,7.0,14.0,59,0.00,,,0.04,Wunderground v.1.15,2013-11-08 04:55:00,